Sebec, Maine
Current Conditions -  °F | °C
As of 9:53 PM on Wednesday 26 Nov 2014 (Local Time) from KMLT Reporting Station
Light Snow Light Snow  
Wind Chill: 18°   Ceiling: 800
Heat Index: 29°   Visibility: 0.75mi
Dew Point: 27°   Wind: 14mph
Humidity: 92%   Direction: 30°NNE
Pressure: 29.95"   Gusts: 22mph
Location:  45.27°N, 69.12°W
Report Text: KMLT 270253Z AUTO 03012G19KT 3/4SM -SN BR VV008 M02/M03 A2995 RMK AO2 PRESFR SLP151 P0004 60015 T10171028 58039
Loading
Personal Weather Stations






























Interactive Weather Map New forecast layout! Learn more

10-Day Weather Forecast

Advertisements
Track Severe Weather on mobile